createdAt,value
2022-12-11T00:00:25.102Z,720
2022-12-11T00:01:26.836Z,719.7
2022-12-11T00:02:28.714Z,719.6
2022-12-11T00:03:31.082Z,719.5
2022-12-11T00:04:32.911Z,720.9
2022-12-11T00:05:34.756Z,720.2
2022-12-11T00:06:36.492Z,719.6
2022-12-11T00:07:38.160Z,720.1
2022-12-11T00:08:40.094Z,719.9
2022-12-11T00:09:41.775Z,719.7
2022-12-11T00:10:43.588Z,720
2022-12-11T00:11:45.474Z,720.1
2022-12-11T00:12:47.282Z,720.1
2022-12-11T00:13:49.072Z,721.2
2022-12-11T00:14:50.881Z,722.5
2022-12-11T00:15:52.449Z,722.9
2022-12-11T00:16:54.426Z,722.6
2022-12-11T00:17:56.270Z,721.7
2022-12-11T00:18:58.018Z,721.5
2022-12-11T00:19:59.843Z,721.7
2022-12-11T00:21:01.626Z,721.9
2022-12-11T00:22:03.639Z,722.7
2022-12-11T00:23:05.481Z,723.5
2022-12-11T00:24:07.329Z,723.1
2022-12-11T00:25:10.684Z,722.6
2022-12-11T00:26:12.663Z,722.1
2022-12-11T00:27:14.651Z,722.2
2022-12-11T00:28:16.359Z,722
2022-12-11T00:29:18.020Z,722.8
2022-12-11T00:30:22.727Z,722.9
2022-12-11T00:31:24.912Z,722
2022-12-11T00:32:36.214Z,722.3
2022-12-11T00:33:39.234Z,723.4
2022-12-11T00:34:41.011Z,722.9
2022-12-11T00:35:42.750Z,722.3
2022-12-11T00:36:44.689Z,722
2022-12-11T00:37:46.448Z,722.2
2022-12-11T00:38:48.101Z,724
2022-12-11T00:39:49.923Z,724.8
2022-12-11T00:40:51.569Z,724.1
2022-12-11T00:41:53.525Z,722.6
2022-12-11T00:42:58.236Z,722.9
2022-12-11T00:43:59.984Z,723.4
2022-12-11T00:45:01.601Z,723.9
2022-12-11T00:46:03.770Z,724.5
2022-12-11T00:47:08.501Z,724.6
2022-12-11T00:48:10.149Z,723.3
2022-12-11T00:49:11.799Z,722.7
2022-12-11T00:50:16.241Z,722.9
2022-12-11T00:51:17.929Z,723.1
2022-12-11T00:52:19.883Z,723
2022-12-11T00:53:21.575Z,723.3
2022-12-11T00:54:23.301Z,724.3
2022-12-11T00:55:25.152Z,724.2
2022-12-11T00:56:27.065Z,723.6
2022-12-11T00:57:28.848Z,722.6
2022-12-11T00:58:30.592Z,723
2022-12-11T00:59:32.281Z,723.4
2022-12-11T01:00:34.096Z,723.5
2022-12-11T01:01:36.553Z,724
2022-12-11T01:02:38.639Z,722.8
2022-12-11T01:03:40.457Z,722.1
2022-12-11T01:04:42.216Z,721.8
2022-12-11T01:05:44.145Z,721.9
2022-12-11T01:06:45.908Z,721.8
2022-12-11T01:07:47.897Z,721.8
2022-12-11T01:08:49.639Z,722.3
2022-12-11T01:09:51.382Z,723.3
2022-12-11T01:10:53.336Z,722
2022-12-11T01:11:55.371Z,721.1
2022-12-11T01:12:57.117Z,722.1
2022-12-11T01:13:58.854Z,722.3
2022-12-11T01:15:00.705Z,722
2022-12-11T01:16:02.461Z,721.1
2022-12-11T01:17:04.578Z,720.8
2022-12-11T01:18:06.287Z,721.5
2022-12-11T01:19:08.006Z,723
2022-12-11T01:20:09.864Z,725.4
2022-12-11T01:21:11.631Z,724.6
2022-12-11T01:22:13.351Z,722.5
2022-12-11T01:23:15.170Z,722
2022-12-11T01:24:16.943Z,722.9
2022-12-11T01:25:18.546Z,721.7
2022-12-11T01:26:20.242Z,720.1
2022-12-11T01:27:21.995Z,719.3
2022-12-11T01:28:23.835Z,719.6
2022-12-11T01:29:25.694Z,718.9
2022-12-11T01:30:27.875Z,718.9
2022-12-11T01:31:29.699Z,719.1
2022-12-11T01:32:31.542Z,718.6
2022-12-11T01:33:33.399Z,717.5
2022-12-11T01:34:35.179Z,718
2022-12-11T01:35:36.990Z,719.2
2022-12-11T01:36:39.063Z,721.2
2022-12-11T01:37:40.893Z,722
2022-12-11T01:38:42.741Z,721.3
2022-12-11T01:39:44.418Z,721.5
2022-12-11T01:40:46.060Z,721.3
2022-12-11T01:41:47.884Z,721.6
2022-12-11T01:42:49.665Z,721.7
2022-12-11T01:43:51.381Z,721.6
2022-12-11T01:44:53.024Z,723.1
2022-12-11T01:45:55.006Z,725.2
2022-12-11T01:46:56.726Z,725.6
2022-12-11T01:47:58.475Z,725.5
2022-12-11T01:49:00.120Z,724.8
2022-12-11T01:50:01.771Z,723.2
2022-12-11T01:51:03.520Z,721.6
2022-12-11T01:52:05.296Z,721.1
2022-12-11T01:53:07.034Z,721.9
2022-12-11T01:54:08.964Z,722.3
2022-12-11T01:55:12.025Z,723.4
2022-12-11T01:56:14.002Z,722.3
2022-12-11T01:57:15.746Z,722.2
2022-12-11T01:58:17.483Z,723.3
2022-12-11T01:59:20.264Z,723.6
2022-12-11T02:00:22.104Z,722.6
2022-12-11T02:01:24.074Z,721.4
2022-12-11T02:02:26.388Z,720.3
2022-12-11T02:03:28.170Z,719.9
2022-12-11T02:04:29.813Z,722.3
2022-12-11T02:05:31.431Z,723.5
2022-12-11T02:06:33.204Z,722.2
2022-12-11T02:07:34.988Z,723.1
2022-12-11T02:08:36.834Z,722.7
2022-12-11T02:09:38.755Z,723.6
2022-12-11T02:10:40.401Z,723.5
2022-12-11T02:11:42.076Z,723.9
2022-12-11T02:12:43.801Z,723
2022-12-11T02:13:45.678Z,723.6
2022-12-11T02:14:47.324Z,723.4
2022-12-11T02:15:48.985Z,723.7
2022-12-11T02:16:50.681Z,723.2
2022-12-11T02:17:52.328Z,722.9
2022-12-11T02:18:54.079Z,722.4
2022-12-11T02:19:55.840Z,723.1
2022-12-11T02:20:57.592Z,723.5
2022-12-11T02:21:59.316Z,723.6
2022-12-11T02:23:01.203Z,723.4
2022-12-11T02:24:02.942Z,723.5
2022-12-11T02:25:04.800Z,724.3
2022-12-11T02:26:06.622Z,724.9
2022-12-11T02:27:08.380Z,725.1
2022-12-11T02:28:10.314Z,725
2022-12-11T02:29:14.930Z,725.3
2022-12-11T02:30:16.607Z,726.1
2022-12-11T02:31:18.755Z,726.4
2022-12-11T02:32:20.853Z,726.3
2022-12-11T02:33:22.585Z,726.2
2022-12-11T02:34:24.319Z,727.5
2022-12-11T02:35:26.025Z,728.3
2022-12-11T02:36:27.674Z,728.8
2022-12-11T02:37:29.536Z,729
2022-12-11T02:38:31.599Z,728.5
2022-12-11T02:39:33.254Z,727.7
2022-12-11T02:40:35.079Z,728
2022-12-11T02:41:36.698Z,728.8
2022-12-11T02:42:38.464Z,729.5
2022-12-11T02:43:40.110Z,730.4
2022-12-11T02:44:41.866Z,730.6
2022-12-11T02:45:43.843Z,731.4
2022-12-11T02:46:45.674Z,731.9
2022-12-11T02:47:47.614Z,731.6
2022-12-11T02:48:49.362Z,731.3
2022-12-11T02:49:51.324Z,730.8
2022-12-11T02:50:53.141Z,730.5
2022-12-11T02:51:54.996Z,731.2
2022-12-11T02:52:56.833Z,732.4
2022-12-11T02:53:58.508Z,731.3
2022-12-11T02:55:00.290Z,729.8
2022-12-11T02:56:02.042Z,729.5
2022-12-11T02:57:03.756Z,729.7
2022-12-11T02:58:05.556Z,729.7
2022-12-11T02:59:07.280Z,729.9
2022-12-11T03:00:08.988Z,728.8
2022-12-11T03:01:11.074Z,728.7
2022-12-11T03:02:13.160Z,728.1
2022-12-11T03:03:14.984Z,727.8
2022-12-11T03:04:16.733Z,727.2
2022-12-11T03:05:18.662Z,727.2
2022-12-11T03:06:20.439Z,727
2022-12-11T03:07:22.178Z,727.4
2022-12-11T03:08:24.393Z,727.3
2022-12-11T03:09:26.199Z,726.9
2022-12-11T03:10:27.833Z,726.7
2022-12-11T03:11:29.581Z,727.1
2022-12-11T03:12:31.400Z,726.9
2022-12-11T03:13:33.095Z,727.3
2022-12-11T03:14:34.805Z,727.4
2022-12-11T03:15:36.749Z,727.5
2022-12-11T03:16:38.951Z,727.5
2022-12-11T03:17:40.758Z,728.1
2022-12-11T03:18:42.611Z,729.4
2022-12-11T03:19:44.350Z,730.2
2022-12-11T03:20:46.036Z,731
2022-12-11T03:21:47.706Z,730.9
2022-12-11T03:22:49.382Z,730.1
2022-12-11T03:23:51.132Z,729
2022-12-11T03:24:52.891Z,729.3
2022-12-11T03:25:54.641Z,730.6
2022-12-11T03:27:01.399Z,728.8
2022-12-11T03:28:03.473Z,730.2
2022-12-11T03:29:05.230Z,729.8
2022-12-11T03:30:06.955Z,730.6
2022-12-11T03:31:09.085Z,730.5
2022-12-11T03:32:11.027Z,730.3
2022-12-11T03:33:12.936Z,730.6
2022-12-11T03:34:14.685Z,729.4
2022-12-11T03:35:16.934Z,728.5
2022-12-11T03:36:18.657Z,727.4
2022-12-11T03:37:20.401Z,727.7
2022-12-11T03:38:22.358Z,727.9
2022-12-11T03:39:24.013Z,728.9
2022-12-11T03:40:26.015Z,728.8
2022-12-11T03:41:27.739Z,728.8
2022-12-11T03:42:29.581Z,728.1
2022-12-11T03:43:31.304Z,726.4
2022-12-11T03:44:33.164Z,726.9
2022-12-11T03:45:34.903Z,726.5
2022-12-11T03:46:36.679Z,726.3
2022-12-11T03:47:38.466Z,726.1
2022-12-11T03:48:40.248Z,726.1
2022-12-11T03:49:41.899Z,725.7
2022-12-11T03:50:43.740Z,726.2
2022-12-11T03:51:45.501Z,726.7
2022-12-11T03:52:47.448Z,726.7
2022-12-11T03:53:49.288Z,726.4
2022-12-11T03:54:51.144Z,726.1
2022-12-11T03:55:53.018Z,726
2022-12-11T03:56:54.751Z,725.8
2022-12-11T03:57:56.591Z,726.1
2022-12-11T03:58:58.461Z,725.6
2022-12-11T04:00:00.390Z,725.4
2022-12-11T04:01:02.242Z,725.5
2022-12-11T04:02:04.226Z,725
2022-12-11T04:03:14.965Z,724.9
2022-12-11T04:04:17.078Z,724.9
2022-12-11T04:05:18.873Z,725.6
2022-12-11T04:06:20.819Z,725.8
2022-12-11T04:07:22.764Z,726.5
2022-12-11T04:08:25.004Z,725.8
2022-12-11T04:09:26.771Z,725.5
2022-12-11T04:10:28.366Z,725.3
2022-12-11T04:11:30.200Z,725.4
2022-12-11T04:12:32.046Z,725.3
2022-12-11T04:13:33.868Z,725.1
2022-12-11T04:14:35.726Z,724.1
2022-12-11T04:15:37.908Z,723.7
2022-12-11T04:16:39.551Z,722.5
2022-12-11T04:17:41.209Z,722.3
2022-12-11T04:18:42.903Z,721.6
2022-12-11T04:19:44.554Z,722.1
2022-12-11T04:20:46.407Z,722.4
2022-12-11T04:21:48.070Z,723.2
2022-12-11T04:22:49.916Z,723.9
2022-12-11T04:23:54.573Z,723.5
2022-12-11T04:24:56.144Z,723.2
2022-12-11T04:25:57.906Z,722.8
2022-12-11T04:26:59.777Z,722.6
2022-12-11T04:28:01.575Z,722.3
2022-12-11T04:29:03.594Z,721.6
2022-12-11T04:30:05.325Z,721.2
2022-12-11T04:31:07.489Z,721.2
2022-12-11T04:32:09.242Z,721
2022-12-11T04:33:10.984Z,720.6
2022-12-11T04:34:12.711Z,720.4
2022-12-11T04:35:14.458Z,720
2022-12-11T04:36:16.232Z,719.8
2022-12-11T04:37:17.955Z,720.2
2022-12-11T04:38:19.583Z,719.9
2022-12-11T04:39:21.462Z,719.6
2022-12-11T04:40:23.163Z,719.2
2022-12-11T04:41:24.912Z,718.7
2022-12-11T04:42:26.717Z,718.3
2022-12-11T04:43:28.370Z,717.9
2022-12-11T04:44:36.215Z,718
2022-12-11T04:45:38.070Z,717.9
2022-12-11T04:46:40.049Z,718.3
2022-12-11T04:47:41.914Z,718.9
2022-12-11T04:48:43.620Z,719.3
2022-12-11T04:49:45.337Z,719.4
2022-12-11T04:50:47.121Z,718.8
2022-12-11T04:51:48.908Z,718.1
2022-12-11T04:52:50.712Z,718.8
2022-12-11T04:53:52.466Z,719.6
2022-12-11T04:54:54.207Z,720.1
2022-12-11T04:55:55.867Z,718.2
2022-12-11T04:56:57.527Z,717.8
2022-12-11T04:57:59.291Z,718.5
2022-12-11T04:59:00.933Z,720
2022-12-11T05:00:02.774Z,719.9
2022-12-11T05:01:04.521Z,719
2022-12-11T05:02:06.481Z,717.7
2022-12-11T05:03:08.557Z,718.1
2022-12-11T05:04:10.348Z,719.5
2022-12-11T05:05:13.992Z,720.5
2022-12-11T05:06:15.818Z,720.3
2022-12-11T05:07:17.418Z,720.6
2022-12-11T05:08:19.515Z,720.4
2022-12-11T05:09:21.237Z,721.8
2022-12-11T05:10:23.096Z,721.3
2022-12-11T05:11:25.044Z,719.9
2022-12-11T05:12:26.758Z,718.7
2022-12-11T05:13:28.566Z,719.1
2022-12-11T05:14:30.309Z,718.3
2022-12-11T05:15:32.171Z,718.3
2022-12-11T05:16:34.595Z,718
2022-12-11T05:17:36.448Z,717.6
2022-12-11T05:18:38.222Z,717.7
2022-12-11T05:19:39.861Z,717.7
2022-12-11T05:20:41.789Z,717.5
2022-12-11T05:21:43.455Z,716.6
2022-12-11T05:22:45.192Z,715.6
2022-12-11T05:23:47.030Z,716
2022-12-11T05:24:48.738Z,716.2
2022-12-11T05:25:50.627Z,717.4
2022-12-11T05:26:52.252Z,717.5
2022-12-11T05:27:56.791Z,717.9
2022-12-11T05:28:58.563Z,718.8
2022-12-11T05:30:00.498Z,719.7
2022-12-11T05:31:02.776Z,718.3
2022-12-11T05:32:04.540Z,717.3
2022-12-11T05:33:06.239Z,716.1
2022-12-11T05:34:08.093Z,716.1
2022-12-11T05:35:11.114Z,716.7
2022-12-11T05:36:13.126Z,716
2022-12-11T05:37:14.845Z,716.7
2022-12-11T05:38:16.725Z,716.6
2022-12-11T05:39:18.468Z,716.7
2022-12-11T05:40:20.284Z,716.2
2022-12-11T05:41:22.073Z,717.9
2022-12-11T05:42:29.644Z,717
2022-12-11T05:43:31.428Z,718.1
2022-12-11T05:44:33.270Z,718.7
2022-12-11T05:45:34.911Z,719
2022-12-11T05:46:37.063Z,719.2
2022-12-11T05:47:39.009Z,719.2
2022-12-11T05:48:40.849Z,717.9
2022-12-11T05:49:42.445Z,720.2
2022-12-11T05:50:44.171Z,720.2
2022-12-11T05:51:48.786Z,720.4
2022-12-11T05:52:50.612Z,720.3
2022-12-11T05:53:52.369Z,720.3
2022-12-11T05:54:54.064Z,720.1
2022-12-11T05:55:56.168Z,719.9
2022-12-11T05:56:57.818Z,720.3
2022-12-11T05:57:59.666Z,720.6
2022-12-11T05:59:01.506Z,721.3
2022-12-11T06:00:03.288Z,721.9
2022-12-11T06:01:05.027Z,721
2022-12-11T06:02:07.587Z,720
2022-12-11T06:03:09.913Z,720.2
2022-12-11T06:04:11.987Z,720.4
2022-12-11T06:05:14.242Z,720.3
2022-12-11T06:06:16.100Z,720.9
2022-12-11T06:07:17.762Z,720.9
2022-12-11T06:08:19.948Z,720.9
2022-12-11T06:09:21.770Z,721.7
2022-12-11T06:10:23.494Z,722.1
2022-12-11T06:11:25.409Z,722.5
2022-12-11T06:12:27.191Z,721.2
2022-12-11T06:13:28.872Z,722.5
2022-12-11T06:14:30.794Z,718.7
2022-12-11T06:15:32.570Z,719.3
2022-12-11T06:16:34.741Z,719.5
2022-12-11T06:17:36.774Z,721
2022-12-11T06:18:38.535Z,722.4
2022-12-11T06:19:40.255Z,722.6
2022-12-11T06:20:42.118Z,721.5
2022-12-11T06:21:43.941Z,719.4
2022-12-11T06:22:45.700Z,716.4
2022-12-11T06:23:47.477Z,718
2022-12-11T06:24:49.190Z,717.7
2022-12-11T06:25:51.144Z,715.9
2022-12-11T06:26:52.995Z,715.9
2022-12-11T06:27:54.736Z,715.3
2022-12-11T06:28:56.710Z,714.4
2022-12-11T06:29:58.555Z,713.5
2022-12-11T06:31:00.427Z,713
2022-12-11T06:32:02.821Z,712.1
2022-12-11T06:33:04.704Z,711
2022-12-11T06:34:06.455Z,713.4
2022-12-11T06:35:09.011Z,712.9
2022-12-11T06:36:10.895Z,712.4
2022-12-11T06:37:12.646Z,711.1
2022-12-11T06:38:17.396Z,711.4
2022-12-11T06:39:19.091Z,711
2022-12-11T06:40:20.827Z,711.3
2022-12-11T06:41:22.673Z,711.8
2022-12-11T06:42:24.347Z,712.5
2022-12-11T06:43:26.167Z,712.2
2022-12-11T06:44:27.925Z,712.2
2022-12-11T06:45:30.017Z,712.6
2022-12-11T06:46:32.033Z,713.1
2022-12-11T06:47:33.877Z,713.5
2022-12-11T06:48:35.659Z,712.5
2022-12-11T06:49:37.399Z,712.3
2022-12-11T06:50:39.346Z,712.9
2022-12-11T06:51:41.045Z,713.4
2022-12-11T06:52:43.239Z,712.1
2022-12-11T06:53:44.982Z,712.3
2022-12-11T06:54:46.653Z,711.5
2022-12-11T06:55:48.584Z,712.8
2022-12-11T06:56:50.437Z,713.6
2022-12-11T06:57:52.594Z,712.6
2022-12-11T06:58:54.365Z,712.5
2022-12-11T06:59:56.074Z,711.9
2022-12-11T07:00:57.853Z,711.5
2022-12-11T07:02:00.204Z,711.3
2022-12-11T07:03:02.145Z,712
2022-12-11T07:04:04.003Z,711.8
2022-12-11T07:05:05.829Z,711.5
2022-12-11T07:06:07.703Z,711.6
2022-12-11T07:07:09.464Z,711.7
2022-12-11T07:08:11.559Z,711.9
2022-12-11T07:09:13.270Z,711.3
2022-12-11T07:10:14.996Z,710.4
2022-12-11T07:11:16.833Z,710.3
2022-12-11T07:12:18.484Z,710.7
2022-12-11T07:13:20.232Z,711.8
2022-12-11T07:14:21.981Z,711.6
2022-12-11T07:15:23.740Z,711.5
2022-12-11T07:16:25.915Z,711.4
2022-12-11T07:17:27.764Z,711.5
2022-12-11T07:18:29.591Z,711
2022-12-11T07:19:31.441Z,711.1
2022-12-11T07:20:33.201Z,711.9
2022-12-11T07:21:35.033Z,712
2022-12-11T07:22:47.229Z,712.3
2022-12-11T07:23:48.987Z,712.1
2022-12-11T07:24:50.831Z,711.9
2022-12-11T07:25:52.677Z,711.2
2022-12-11T07:26:54.349Z,711
2022-12-11T07:27:56.171Z,710.6
2022-12-11T07:28:57.963Z,709.8
2022-12-11T07:29:59.655Z,709.6
2022-12-11T07:31:01.532Z,710.2
2022-12-11T07:32:03.750Z,710.4
2022-12-11T07:33:05.751Z,710.1
2022-12-11T07:34:07.373Z,710.7
2022-12-11T07:35:10.826Z,710.1
2022-12-11T07:36:12.806Z,709.6
2022-12-11T07:37:14.485Z,709.5
2022-12-11T07:38:16.243Z,709.1
2022-12-11T07:39:17.924Z,709.1
2022-12-11T07:40:19.665Z,708.5
2022-12-11T07:41:21.368Z,709.2
2022-12-11T07:42:23.113Z,708.6
2022-12-11T07:43:24.871Z,708.5
2022-12-11T07:44:26.681Z,708.4
2022-12-11T07:45:28.831Z,707.8
2022-12-11T07:46:30.705Z,708.2
2022-12-11T07:47:32.478Z,708.1
2022-12-11T07:48:37.382Z,708.6
2022-12-11T07:49:39.219Z,708.4
2022-12-11T07:50:40.975Z,708
2022-12-11T07:51:42.821Z,708
2022-12-11T07:52:44.777Z,707.7
2022-12-11T07:53:46.544Z,707.1
2022-12-11T07:54:48.261Z,707.3
2022-12-11T07:55:49.905Z,707.5
2022-12-11T07:56:54.673Z,707.6
2022-12-11T07:57:56.471Z,707.3
2022-12-11T07:58:58.110Z,707.4
2022-12-11T07:59:59.753Z,707.6
2022-12-11T08:01:01.648Z,707.4
2022-12-11T08:02:03.686Z,707.1
2022-12-11T08:03:05.333Z,708.3
2022-12-11T08:04:07.153Z,707.6
2022-12-11T08:05:10.744Z,707.4
2022-12-11T08:06:12.718Z,706.4
2022-12-11T08:07:14.482Z,706.5
2022-12-11T08:08:16.570Z,706.9
2022-12-11T08:09:22.038Z,707.2
2022-12-11T08:10:23.904Z,706.8
2022-12-11T08:11:25.678Z,706.9
2022-12-11T08:12:27.575Z,706.6
2022-12-11T08:13:29.542Z,706.1
2022-12-11T08:14:31.195Z,706.6
2022-12-11T08:15:33.053Z,705.7
2022-12-11T08:16:35.029Z,705.1
2022-12-11T08:17:40.841Z,706.3
2022-12-11T08:18:42.596Z,706
2022-12-11T08:19:44.355Z,706.1
2022-12-11T08:20:46.099Z,707.2
2022-12-11T08:21:47.857Z,707.2
2022-12-11T08:23:00.472Z,707.6
2022-12-11T08:24:02.275Z,707.3
2022-12-11T08:25:04.029Z,707.7
2022-12-11T08:26:05.705Z,707.2
2022-12-11T08:27:07.500Z,708.2
2022-12-11T08:28:09.391Z,708.1
2022-12-11T08:29:11.164Z,707.7
2022-12-11T08:30:12.977Z,708.2
2022-12-11T08:31:15.262Z,708.1
2022-12-11T08:32:17.299Z,708.3
2022-12-11T08:33:19.026Z,708.8
2022-12-11T08:34:20.628Z,707.9
2022-12-11T08:35:28.452Z,708.4
2022-12-11T08:36:30.433Z,708.6
2022-12-11T08:37:32.272Z,709.1
2022-12-11T08:38:34.130Z,709.1
2022-12-11T08:39:35.872Z,709.1
2022-12-11T08:40:37.618Z,709.2
2022-12-11T08:41:39.289Z,709.1
2022-12-11T08:42:41.122Z,709.3
2022-12-11T08:43:42.889Z,709.1
2022-12-11T08:44:44.616Z,709.2
2022-12-11T08:45:46.477Z,708.8
2022-12-11T08:46:48.419Z,708.7
2022-12-11T08:47:50.262Z,708.9
2022-12-11T08:48:55.090Z,708.5
2022-12-11T08:49:56.941Z,708.8
2022-12-11T08:50:58.911Z,708.7
2022-12-11T08:52:00.629Z,709
2022-12-11T08:53:02.480Z,709.4
2022-12-11T08:54:04.308Z,709
2022-12-11T08:55:06.174Z,710.1
2022-12-11T08:56:07.959Z,710
2022-12-11T08:57:09.708Z,709.3
2022-12-11T08:58:11.492Z,709.5
2022-12-11T08:59:13.269Z,709.9
2022-12-11T09:00:15.012Z,709.2
2022-12-11T09:01:16.980Z,709.2
2022-12-11T09:02:18.945Z,709.6
2022-12-11T09:03:20.665Z,709.4
2022-12-11T09:04:22.310Z,709.5
2022-12-11T09:05:23.952Z,709.5
2022-12-11T09:06:25.754Z,709.1
2022-12-11T09:07:27.448Z,710.2
2022-12-11T09:08:29.664Z,709.7
2022-12-11T09:09:31.566Z,710.1
2022-12-11T09:10:33.432Z,709.8
2022-12-11T09:11:35.208Z,710.8
2022-12-11T09:12:36.870Z,711.4
2022-12-11T09:13:38.624Z,710.3
2022-12-11T09:14:40.399Z,710.2
2022-12-11T09:15:42.607Z,710.6
2022-12-11T09:16:44.424Z,711.3
2022-12-11T09:17:46.060Z,711.4
2022-12-11T09:18:47.816Z,712.1
2022-12-11T09:19:49.580Z,712.2
2022-12-11T09:20:51.222Z,712.5
2022-12-11T09:21:53.092Z,712.7
2022-12-11T09:22:54.900Z,712.8
2022-12-11T09:23:56.760Z,712.9
2022-12-11T09:24:58.508Z,712.4
2022-12-11T09:26:00.260Z,712.8
2022-12-11T09:27:02.104Z,712.7
2022-12-11T09:28:03.865Z,712.1
2022-12-11T09:29:05.623Z,712.6
2022-12-11T09:30:07.440Z,712.6
2022-12-11T09:31:09.451Z,712.5
2022-12-11T09:32:11.271Z,712.4
2022-12-11T09:33:13.151Z,712.7
2022-12-11T09:34:15.160Z,713.2
2022-12-11T09:35:16.895Z,712.4
2022-12-11T09:36:18.641Z,712.5
2022-12-11T09:37:20.527Z,713.1
2022-12-11T09:38:22.349Z,713.1
2022-12-11T09:39:24.134Z,713.7
2022-12-11T09:40:25.974Z,712.8
2022-12-11T09:41:27.778Z,713.3
2022-12-11T09:42:29.548Z,713.2
2022-12-11T09:43:31.296Z,713.5
2022-12-11T09:44:33.037Z,713.3
2022-12-11T09:45:34.881Z,713.3
2022-12-11T09:46:37.006Z,713.3
2022-12-11T09:47:38.893Z,713.4
2022-12-11T09:48:40.660Z,713
2022-12-11T09:49:42.516Z,712.9
2022-12-11T09:50:44.330Z,713
2022-12-11T09:51:46.176Z,712.7
2022-12-11T09:52:47.963Z,712.7
2022-12-11T09:53:49.888Z,713.1
2022-12-11T09:54:51.805Z,712.6
2022-12-11T09:55:53.590Z,712.4
2022-12-11T09:56:58.189Z,712.5
2022-12-11T09:57:59.864Z,712.8
2022-12-11T09:59:01.609Z,713.1
2022-12-11T10:00:06.516Z,713.3
2022-12-11T10:01:08.513Z,712.6
2022-12-11T10:02:10.688Z,712.4
2022-12-11T10:03:12.572Z,712.5
2022-12-11T10:04:14.225Z,712.4
2022-12-11T10:05:15.971Z,712.2
2022-12-11T10:06:17.641Z,711.9
2022-12-11T10:07:19.355Z,712
2022-12-11T10:08:21.313Z,712.3
2022-12-11T10:09:23.129Z,712
2022-12-11T10:10:24.938Z,713.1
2022-12-11T10:11:26.755Z,713.1
2022-12-11T10:12:28.402Z,712.2
2022-12-11T10:13:30.252Z,712.7
2022-12-11T10:14:32.334Z,713.2
2022-12-11T10:15:34.499Z,713.2
2022-12-11T10:16:36.210Z,712.3
2022-12-11T10:17:37.833Z,713.4
2022-12-11T10:18:39.706Z,713.2
2022-12-11T10:19:41.566Z,713.3
2022-12-11T10:20:43.298Z,713
2022-12-11T10:21:45.158Z,713.3
2022-12-11T10:22:46.779Z,711.9
2022-12-11T10:23:48.610Z,712.1
2022-12-11T10:25:20.511Z,712
2022-12-11T10:26:22.260Z,712.2
2022-12-11T10:27:24.211Z,712.3
2022-12-11T10:28:25.992Z,712.3
2022-12-11T10:29:27.734Z,711.8
2022-12-11T10:30:35.184Z,711.5
2022-12-11T10:31:37.312Z,712.3
2022-12-11T10:32:39.401Z,712.7
2022-12-11T10:33:41.044Z,712.2
2022-12-11T10:34:42.794Z,711.8
2022-12-11T10:35:45.276Z,712
2022-12-11T10:36:47.314Z,712.1
2022-12-11T10:37:48.974Z,712
2022-12-11T10:38:50.734Z,712.6
2022-12-11T10:39:52.493Z,712.5
2022-12-11T10:40:54.374Z,712.6
2022-12-11T10:41:56.167Z,713.1
2022-12-11T10:42:57.878Z,713
2022-12-11T10:43:59.580Z,712.9
2022-12-11T10:45:01.316Z,713.7
2022-12-11T10:46:03.373Z,713.3
2022-12-11T10:47:05.194Z,714.1
2022-12-11T10:48:06.934Z,714.1
2022-12-11T10:49:08.686Z,714
2022-12-11T10:50:10.548Z,714.3
2022-12-11T10:51:12.395Z,714.3
2022-12-11T10:52:14.162Z,714.9
2022-12-11T10:53:15.992Z,714.9
2022-12-11T10:54:17.863Z,714.5
2022-12-11T10:55:19.808Z,715.1
2022-12-11T10:56:21.639Z,714.7
2022-12-11T10:57:23.493Z,715
2022-12-11T10:58:25.241Z,714.6
2022-12-11T10:59:27.094Z,715.1
2022-12-11T11:00:28.946Z,715.2
2022-12-11T11:01:31.028Z,715
2022-12-11T11:02:33.532Z,714.9
2022-12-11T11:03:35.332Z,714.7
2022-12-11T11:04:37.057Z,715.4
2022-12-11T11:05:38.819Z,715.4
2022-12-11T11:06:40.658Z,715.8
2022-12-11T11:07:42.423Z,715.5
2022-12-11T11:08:44.254Z,715.7
2022-12-11T11:09:45.890Z,716
2022-12-11T11:10:50.762Z,716
2022-12-11T11:11:52.683Z,716.1
2022-12-11T11:12:54.443Z,715.9
2022-12-11T11:13:56.260Z,716.7
2022-12-11T11:14:57.981Z,716.6
2022-12-11T11:16:00.086Z,716.7
2022-12-11T11:17:01.833Z,716.9
2022-12-11T11:18:03.557Z,716.6
2022-12-11T11:19:05.303Z,716.7
2022-12-11T11:20:06.981Z,716.6
2022-12-11T11:21:08.698Z,716.5
2022-12-11T11:22:10.476Z,716.3
2022-12-11T11:23:12.191Z,716.1
2022-12-11T11:24:13.940Z,716.3
2022-12-11T11:25:15.898Z,716.6
2022-12-11T11:26:17.774Z,716.3
2022-12-11T11:27:22.559Z,716.4
2022-12-11T11:28:24.245Z,716.5
2022-12-11T11:29:25.985Z,716.3
2022-12-11T11:30:27.919Z,716.4
2022-12-11T11:31:30.238Z,716.2
2022-12-11T11:32:32.116Z,716.2
2022-12-11T11:33:33.895Z,716.6
2022-12-11T11:34:35.641Z,716.4
2022-12-11T11:35:46.173Z,716.9
2022-12-11T11:36:48.146Z,717.1
2022-12-11T11:37:49.759Z,717.2
2022-12-11T11:38:51.613Z,717.6
2022-12-11T11:39:53.359Z,718.1
2022-12-11T11:41:15.417Z,717.7
2022-12-11T11:42:17.195Z,717.7
2022-12-11T11:43:18.984Z,718
2022-12-11T11:44:20.833Z,718
2022-12-11T11:45:22.504Z,718.4
2022-12-11T11:46:24.703Z,717.7
2022-12-11T11:47:26.491Z,717.4
2022-12-11T11:48:31.216Z,716.9
2022-12-11T11:49:35.742Z,716.7
2022-12-11T11:50:37.488Z,717
2022-12-11T11:51:39.229Z,717.3
2022-12-11T11:52:40.963Z,717.3
2022-12-11T11:53:42.811Z,717.5
2022-12-11T11:54:44.459Z,717.9
2022-12-11T11:55:46.203Z,718.3
2022-12-11T11:56:47.879Z,718.8
2022-12-11T11:57:49.645Z,718
2022-12-11T11:58:51.649Z,717.8
2022-12-11T11:59:53.440Z,718.5
2022-12-11T12:00:55.255Z,718.5
2022-12-11T12:01:56.998Z,718.8
2022-12-11T12:03:01.859Z,719.3
2022-12-11T12:04:03.642Z,719.2
2022-12-11T12:05:05.441Z,719.4
2022-12-11T12:06:15.665Z,719.4
2022-12-11T12:07:17.291Z,719.3
2022-12-11T12:08:19.723Z,719.3
2022-12-11T12:09:21.935Z,719.5
2022-12-11T12:10:23.595Z,719.7
2022-12-11T12:11:25.321Z,719.7
2022-12-11T12:12:34.640Z,719.8
2022-12-11T12:13:52.703Z,719.8
2022-12-11T12:14:54.650Z,719.7
2022-12-11T12:15:56.590Z,719.9
2022-12-11T12:16:58.789Z,719.7
2022-12-11T12:18:00.730Z,719.9
2022-12-11T12:19:02.482Z,720
2022-12-11T12:20:04.284Z,720
2022-12-11T12:21:05.939Z,720.2
2022-12-11T12:22:07.684Z,720.1
2022-12-11T12:23:09.462Z,720
2022-12-11T12:24:11.255Z,719.6
2022-12-11T12:25:14.521Z,720.1
2022-12-11T12:26:16.302Z,719.9
2022-12-11T12:27:53.658Z,720
2022-12-11T12:28:55.674Z,719.8
2022-12-11T12:29:57.396Z,719.7
2022-12-11T12:30:59.213Z,719.6
2022-12-11T12:32:01.290Z,719.3
2022-12-11T12:33:03.042Z,719
2022-12-11T12:34:04.789Z,718.4
2022-12-11T12:35:06.540Z,717.9
2022-12-11T12:36:08.187Z,717.9
2022-12-11T12:37:09.824Z,717.2
2022-12-11T12:38:11.586Z,717.1
2022-12-11T12:39:13.246Z,717
2022-12-11T12:40:15.170Z,717
2022-12-11T12:41:16.937Z,717
2022-12-11T12:42:21.329Z,716.3
2022-12-11T12:43:23.194Z,715.8
2022-12-11T12:44:25.552Z,715.9
2022-12-11T12:45:27.598Z,715.5
2022-12-11T12:46:29.372Z,715.2
2022-12-11T12:47:31.191Z,714.8
2022-12-11T12:48:33.141Z,714.5
2022-12-11T12:49:34.905Z,714.4
2022-12-11T12:50:36.741Z,714.5
2022-12-11T12:51:38.358Z,714.4
2022-12-11T12:52:40.043Z,714.5
2022-12-11T12:53:41.985Z,714.3
2022-12-11T12:54:43.739Z,714
2022-12-11T12:55:45.402Z,714.1
2022-12-11T12:56:47.123Z,713.7
2022-12-11T12:57:48.880Z,713.2
2022-12-11T12:58:50.541Z,713
2022-12-11T12:59:52.500Z,712.4
2022-12-11T13:00:54.528Z,712.1
2022-12-11T13:01:56.713Z,712.5
2022-12-11T13:02:58.535Z,712
2022-12-11T13:04:00.304Z,711.2
2022-12-11T13:05:02.139Z,709.8
2022-12-11T13:06:03.814Z,709.1
2022-12-11T13:07:05.627Z,709.1
2022-12-11T13:08:07.721Z,709.1
2022-12-11T13:09:09.342Z,710.5
2022-12-11T13:10:11.079Z,710.6
2022-12-11T13:11:13.022Z,710.8
2022-12-11T13:12:14.778Z,710
2022-12-11T13:13:16.627Z,708.7
2022-12-11T13:14:18.366Z,708.1
2022-12-11T13:15:20.248Z,708.6
2022-12-11T13:16:22.286Z,709.4
2022-12-11T13:17:23.978Z,710
2022-12-11T13:18:25.769Z,710.5
2022-12-11T13:19:27.724Z,710.2
2022-12-11T13:20:29.567Z,708.1
2022-12-11T13:21:31.318Z,707.5
2022-12-11T13:22:33.138Z,706.8
2022-12-11T13:23:34.837Z,706.4
2022-12-11T13:24:36.661Z,706.2
2022-12-11T13:25:42.203Z,706.8